Universal, Pennsylvania
Current Conditions -  °F | °C
As of 1:53 PM on Saturday 25 Oct 2014 (Local Time) from KAGC Reporting Station
Few Clouds Few Clouds  
Wind Chill: 64°   Ceiling: Unl
Heat Index: 64°   Visibility: 10mi
Dew Point: 46°   Wind: 20mph
Humidity: 52%   Direction: 230°SW
Pressure: 29.82"   Gusts: 28mph
Location:  40.4601°N, 79.8243°W
Report Text: KAGC 251753Z 23017G24KT 10SM FEW055 18/08 A2982 RMK AO2 SLP102 T01780078 10178 20089 58035
Loading
Personal Weather Stations






























Interactive Weather Map
Tropical Storm Tracking
New forecast layout! Learn more

10-Day Weather Forecast

Advertisements
Track Severe Weather on mobile